X  Lukk Metar værinformasjon om luftfart     LZPP Piešťany Airport
Temperatur
31°C Temperatur
19°C Duggpunkt
49% Luftfuktighet



Vind
5 KM/T
3 MPT
1 M/S
3 KNP



310°
NV
Nåværende forhold

Stort sett spredte skyer Stort sett spredte skyer
Trykk 1010.84 (hPa) - 29.85 (inHg)
Sikt 6 (mil) - 9.7 (km)
Flyplass
Flyplass-kode LZPP

Plassering: Piešťany Airport
Avstand: 31 (km)

Metar:
LZPP 141300Z 31003KT 220V350 9999 SCT048 31/19 Q1011

Tid: 14-07-2024 15:00 CEST